Latest METARs, TAFs and NOTAMs for MMPR


---------------------------------------------------------------------------
	(OBSERVATIONS)
MMPR 292049Z 23012KT 15SM  SCT018 27/20 A2989  RMK SLP117 57007
    923 8/500 CU ALQDS=
MMPR 291943Z 22014KT 15SM  SKC 27/21 A2990 RMK CU-SC ALQDS=
MMPR 291845Z 25011KT 15SM  SKCP27/20 A2991 RMK CU/SC 3-4 QUADS=
---------------------------------------------------------------------------
	(TERMINAL AREA FORECAST)
MMPR 291625Z 2918/3024 23015KT P6SM SKC TX29/2921Z TN18/3012Z
    BECMG 3002/3003 00000KT
    FM301700 26010KT P6SM SKC=
---------------------------------------------------------------------------
	(NOTAMS)


MMPR A1837/17 CD OPR FREQ 121.9 MHZ. 1500/2200 DLY, 02 APR 15:00
    2017 UNTIL 28 OCT 22:00 2017. CREATED: 31 MAR 14:21 2017

MMPR A2314/17 TWY G CLSD. 02 MAY 15:00 2017 UNTIL 22 MAY 23:00
    2017. CREATED: 25 APR 18:21 2017

MMPR A2315/17 TWY E CLSD. 23 MAY 15:00 2017 UNTIL 13 JUN 23:00
    2017. CREATED: 25 APR 18:24 2017

---------------------------------------------------------------------------